createdAt,value
2018-10-07T00:01:53.644Z,11.93
2018-10-07T00:04:22.509Z,11.98
2018-10-07T00:06:51.792Z,11.94
2018-10-07T00:09:20.555Z,11.95
2018-10-07T00:11:49.324Z,11.94
2018-10-07T00:14:18.040Z,12.02
2018-10-07T00:16:47.718Z,12.03
2018-10-07T00:19:16.394Z,12.06
2018-10-07T00:21:45.409Z,12.04
2018-10-07T00:24:14.243Z,12.09
2018-10-07T00:26:43.096Z,12.06
2018-10-07T00:29:12.269Z,11.98
2018-10-07T00:31:46.338Z,11.95
2018-10-07T00:34:15.080Z,12.01
2018-10-07T00:36:43.839Z,11.96
2018-10-07T00:39:12.933Z,11.97
2018-10-07T00:41:42.216Z,11.97
2018-10-07T00:44:11.785Z,11.97
2018-10-07T00:46:40.708Z,12.00
2018-10-07T00:49:09.543Z,12.06
2018-10-07T00:51:39.287Z,12.09
2018-10-07T00:54:08.331Z,12.11
2018-10-07T00:56:37.126Z,12.11
2018-10-07T00:59:06.156Z,12.11
2018-10-07T01:01:35.110Z,12.13
2018-10-07T01:04:04.511Z,12.09
2018-10-07T01:06:34.601Z,12.01
2018-10-07T01:09:03.926Z,11.99
2018-10-07T01:11:34.046Z,12.01
2018-10-07T01:14:03.052Z,11.97
2018-10-07T01:16:31.930Z,11.98
2018-10-07T01:19:01.358Z,11.99
2018-10-07T01:21:30.746Z,11.90
2018-10-07T01:24:00.467Z,11.88
2018-10-07T01:26:29.259Z,11.89
2018-10-07T01:28:58.470Z,11.91
2018-10-07T01:31:27.251Z,11.85
2018-10-07T01:33:56.071Z,11.82
2018-10-07T01:36:26.134Z,11.84
2018-10-07T01:38:55.487Z,11.81
2018-10-07T01:41:24.432Z,11.79
2018-10-07T01:43:53.906Z,11.80
2018-10-07T01:46:23.043Z,11.77
2018-10-07T01:48:52.325Z,11.73
2018-10-07T01:51:21.432Z,11.73
2018-10-07T01:53:50.353Z,11.74
2018-10-07T01:56:19.038Z,11.70
2018-10-07T01:58:48.075Z,11.66
2018-10-07T02:01:17.478Z,11.62
2018-10-07T02:03:46.227Z,11.60
2018-10-07T02:06:15.022Z,11.57
2018-10-07T02:08:44.047Z,11.59
2018-10-07T02:11:14.200Z,11.62
2018-10-07T02:13:43.422Z,11.60
2018-10-07T02:16:12.717Z,11.55
2018-10-07T02:18:41.837Z,11.60
2018-10-07T02:21:11.235Z,11.63
2018-10-07T02:23:40.373Z,11.68
2018-10-07T02:26:09.081Z,11.71
2018-10-07T02:28:37.866Z,11.59
2018-10-07T02:31:07.308Z,11.33
2018-10-07T02:33:36.251Z,11.35
2018-10-07T02:36:04.857Z,11.35
2018-10-07T02:38:34.880Z,11.40
2018-10-07T02:41:03.926Z,11.38
2018-10-07T02:43:33.160Z,11.43
2018-10-07T02:46:02.255Z,11.50
2018-10-07T02:48:32.081Z,11.58
2018-10-07T02:51:00.841Z,11.54
2018-10-07T02:53:30.031Z,11.52
2018-10-07T02:55:59.248Z,11.50
2018-10-07T02:58:28.742Z,11.44
2018-10-07T03:00:57.617Z,11.39
2018-10-07T03:03:26.527Z,11.21
2018-10-07T03:05:55.262Z,11.21
2018-10-07T03:08:24.012Z,11.18
2018-10-07T03:10:53.555Z,11.18
2018-10-07T03:13:22.568Z,11.17
2018-10-07T03:15:51.317Z,11.17
2018-10-07T03:18:20.881Z,11.09
2018-10-07T03:20:49.596Z,11.03
2018-10-07T03:23:18.716Z,10.96
2018-10-07T03:25:48.003Z,10.93
2018-10-07T03:28:17.335Z,10.91
2018-10-07T03:30:46.988Z,10.73
2018-10-07T03:33:15.713Z,10.69
2018-10-07T03:35:44.480Z,10.69
2018-10-07T03:38:13.260Z,10.70
2018-10-07T03:40:42.017Z,10.55
2018-10-07T03:43:11.481Z,10.45
2018-10-07T03:45:40.382Z,10.44
2018-10-07T03:48:10.643Z,10.46
2018-10-07T03:50:40.236Z,10.52
2018-10-07T03:53:09.446Z,10.53
2018-10-07T03:55:38.648Z,10.52
2018-10-07T03:58:07.547Z,10.49
2018-10-07T04:00:37.237Z,10.52
2018-10-07T04:03:06.416Z,10.55
2018-10-07T04:05:35.407Z,10.49
2018-10-07T04:08:04.376Z,10.49
2018-10-07T04:10:34.052Z,10.51
2018-10-07T04:13:03.224Z,10.58
2018-10-07T04:15:32.397Z,10.68
2018-10-07T04:18:01.527Z,10.77
2018-10-07T04:20:31.057Z,10.76
2018-10-07T04:23:00.086Z,10.73
2018-10-07T04:25:29.521Z,10.61
2018-10-07T04:27:58.483Z,10.70
2018-10-07T04:30:27.658Z,10.78
2018-10-07T04:32:56.819Z,10.85
2018-10-07T04:35:25.974Z,10.92
2018-10-07T04:37:54.718Z,10.89
2018-10-07T04:40:23.817Z,10.79
2018-10-07T04:42:52.573Z,10.80
2018-10-07T04:45:21.203Z,10.80
2018-10-07T04:47:51.202Z,10.78
2018-10-07T04:50:20.107Z,10.68
2018-10-07T04:52:49.868Z,10.57
2018-10-07T04:55:19.867Z,10.42
2018-10-07T04:57:48.897Z,10.40
2018-10-07T05:00:17.774Z,10.38
2018-10-07T05:02:46.641Z,10.34
2018-10-07T05:05:15.808Z,10.23
2018-10-07T05:07:45.099Z,10.21
2018-10-07T05:10:58.554Z,10.15
2018-10-07T05:13:30.249Z,10.15
2018-10-07T05:16:00.842Z,10.03
2018-10-07T05:18:30.807Z,9.99
2018-10-07T05:21:00.091Z,9.96
2018-10-07T05:23:28.813Z,9.90
2018-10-07T05:25:59.317Z,9.84
2018-10-07T05:28:28.885Z,9.85
2018-10-07T05:30:57.772Z,9.70
2018-10-07T05:33:26.631Z,9.60
2018-10-07T05:35:56.426Z,9.63
2018-10-07T05:38:25.432Z,9.63
2018-10-07T05:40:54.473Z,9.67
2018-10-07T05:43:23.252Z,9.68
2018-10-07T05:45:53.124Z,9.69
2018-10-07T05:48:22.177Z,9.67
2018-10-07T05:50:50.778Z,9.64
2018-10-07T05:53:19.848Z,9.65
2018-10-07T05:55:49.041Z,9.62
2018-10-07T05:58:18.318Z,9.56
2018-10-07T06:00:47.333Z,9.55
2018-10-07T06:03:19.417Z,9.57
2018-10-07T06:05:48.204Z,9.65
2018-10-07T06:08:18.904Z,9.73
2018-10-07T06:10:47.816Z,9.80
2018-10-07T06:13:16.382Z,9.87
2018-10-07T06:15:46.677Z,9.87
2018-10-07T06:18:15.555Z,9.83
2018-10-07T06:20:45.131Z,9.75
2018-10-07T06:23:15.009Z,9.81
2018-10-07T06:25:44.796Z,9.89
2018-10-07T06:28:13.488Z,10.00
2018-10-07T06:30:43.088Z,9.97
2018-10-07T06:33:12.289Z,9.97
2018-10-07T06:35:41.803Z,10.04
2018-10-07T06:38:10.655Z,10.17
2018-10-07T06:40:39.641Z,10.24
2018-10-07T06:43:08.779Z,10.35
2018-10-07T06:45:37.614Z,10.48
2018-10-07T06:48:07.131Z,10.60
2018-10-07T06:50:36.738Z,10.66
2018-10-07T06:53:06.029Z,10.70
2018-10-07T06:55:35.381Z,10.84
2018-10-07T06:58:04.443Z,10.96
2018-10-07T07:00:33.738Z,11.04
2018-10-07T07:03:02.488Z,11.12
2018-10-07T07:05:31.198Z,11.23
2018-10-07T07:08:00.540Z,11.34
2018-10-07T07:10:29.629Z,11.36
2018-10-07T07:12:59.947Z,11.45
2018-10-07T07:15:29.009Z,11.57
2018-10-07T07:17:58.262Z,11.69
2018-10-07T07:20:27.565Z,11.84
2018-10-07T07:22:56.404Z,11.99
2018-10-07T07:25:25.197Z,12.13
2018-10-07T07:27:54.299Z,12.32
2018-10-07T07:30:23.443Z,12.53
2018-10-07T07:32:53.637Z,12.76
2018-10-07T07:35:22.818Z,12.90
2018-10-07T07:37:52.048Z,13.18
2018-10-07T07:40:21.703Z,13.39
2018-10-07T07:42:51.057Z,13.72
2018-10-07T07:45:19.863Z,14.07
2018-10-07T07:47:48.990Z,14.35
2018-10-07T07:50:19.138Z,14.50
2018-10-07T07:52:48.209Z,14.57
2018-10-07T07:55:17.524Z,14.49
2018-10-07T07:57:46.722Z,14.53
2018-10-07T08:00:16.112Z,14.30
2018-10-07T08:02:45.292Z,14.27
2018-10-07T08:05:14.668Z,14.33
2018-10-07T08:07:44.057Z,14.51
2018-10-07T08:10:13.329Z,14.88
2018-10-07T08:12:42.191Z,16.50
2018-10-07T08:15:11.733Z,17.32
2018-10-07T08:17:40.680Z,18.00
2018-10-07T08:20:10.130Z,20.49
2018-10-07T08:22:39.199Z,22.77
2018-10-07T08:25:08.248Z,24.37
2018-10-07T08:27:38.490Z,25.97
2018-10-07T08:30:08.010Z,26.49
2018-10-07T08:32:37.885Z,26.81
2018-10-07T08:35:07.220Z,27.73
2018-10-07T08:37:36.251Z,28.26
2018-10-07T08:40:05.474Z,28.89
2018-10-07T08:42:36.430Z,28.69
2018-10-07T08:45:06.235Z,29.18
2018-10-07T08:47:35.120Z,29.83
2018-10-07T08:50:03.954Z,30.75
2018-10-07T08:52:33.384Z,31.34
2018-10-07T08:55:02.972Z,31.56
2018-10-07T08:57:32.104Z,31.56
2018-10-07T09:00:01.301Z,31.91
2018-10-07T09:02:30.540Z,31.95
2018-10-07T09:04:59.854Z,32.57
2018-10-07T09:07:28.843Z,33.82
2018-10-07T09:09:58.309Z,33.95
2018-10-07T09:12:27.344Z,34.58
2018-10-07T09:14:56.672Z,35.14
2018-10-07T09:17:25.795Z,35.92
2018-10-07T09:19:54.996Z,36.67
2018-10-07T09:22:24.251Z,36.08
2018-10-07T09:24:53.500Z,35.52
2018-10-07T09:27:24.238Z,36.22
2018-10-07T09:29:53.024Z,36.13
2018-10-07T09:32:22.200Z,35.41
2018-10-07T09:34:51.008Z,36.06
2018-10-07T09:37:19.843Z,33.86
2018-10-07T09:39:48.788Z,31.25
2018-10-07T09:42:19.943Z,29.64
2018-10-07T09:44:49.099Z,28.45
2018-10-07T09:47:18.505Z,27.40
2018-10-07T09:49:48.894Z,26.22
2018-10-07T09:52:17.854Z,25.35
2018-10-07T09:54:47.190Z,24.88
2018-10-07T09:57:16.284Z,24.80
2018-10-07T09:59:45.723Z,24.75
2018-10-07T10:02:14.665Z,26.14
2018-10-07T10:04:43.646Z,28.64
2018-10-07T10:07:13.280Z,29.38
2018-10-07T10:09:42.423Z,30.30
2018-10-07T10:12:11.570Z,32.12
2018-10-07T10:14:40.634Z,32.80
2018-10-07T10:17:12.943Z,33.69
2018-10-07T10:19:52.211Z,34.30
2018-10-07T10:22:27.385Z,35.11
2018-10-07T10:25:08.218Z,36.74
2018-10-07T10:27:50.338Z,37.14
2018-10-07T10:30:32.644Z,36.81
2018-10-07T10:33:09.678Z,37.02
2018-10-07T10:36:16.571Z,35.87
2018-10-07T10:39:56.785Z,33.72
2018-10-07T10:44:38.778Z,30.91
2018-10-07T10:47:27.590Z,29.91
2018-10-07T10:50:05.003Z,30.05
2018-10-07T10:52:41.265Z,29.76
2018-10-07T10:55:21.274Z,30.93
2018-10-07T10:57:56.054Z,33.00
2018-10-07T11:00:29.268Z,35.12
2018-10-07T11:03:21.984Z,35.54
2018-10-07T11:06:02.909Z,36.88
2018-10-07T11:08:38.043Z,37.21
2018-10-07T11:11:15.978Z,37.06
2018-10-07T11:13:57.902Z,37.01
2018-10-07T11:16:33.185Z,38.19
2018-10-07T11:19:10.129Z,38.99
2018-10-07T11:21:52.681Z,38.28
2018-10-07T11:25:37.349Z,39.31
2018-10-07T11:28:12.370Z,39.10
2018-10-07T11:31:51.819Z,40.33
2018-10-07T11:34:32.779Z,40.78
2018-10-07T11:37:37.860Z,41.33
2018-10-07T11:40:14.070Z,40.56
2018-10-07T11:43:20.639Z,40.25
2018-10-07T11:45:56.248Z,38.27
2018-10-07T11:48:34.444Z,38.96
2018-10-07T11:51:42.739Z,38.89
2018-10-07T11:54:12.581Z,39.95
2018-10-07T11:56:41.536Z,40.30
2018-10-07T11:59:10.352Z,40.67
2018-10-07T12:01:39.455Z,40.62
2018-10-07T12:04:08.540Z,41.42
2018-10-07T12:06:37.782Z,40.48
2018-10-07T12:09:07.171Z,41.69
2018-10-07T12:11:36.231Z,40.91
2018-10-07T12:14:05.455Z,41.94
2018-10-07T12:16:34.894Z,42.59
2018-10-07T12:19:04.149Z,41.91
2018-10-07T12:21:34.366Z,40.55
2018-10-07T12:24:03.438Z,39.40
2018-10-07T12:26:33.675Z,39.54
2018-10-07T12:29:02.703Z,41.03
2018-10-07T12:31:32.862Z,40.80
2018-10-07T12:34:02.358Z,41.31
2018-10-07T12:36:31.377Z,42.10
2018-10-07T12:39:00.399Z,41.68
2018-10-07T12:41:29.045Z,41.12
2018-10-07T12:43:58.072Z,41.67
2018-10-07T12:46:28.210Z,41.36
2018-10-07T12:48:57.595Z,41.89
2018-10-07T12:51:27.296Z,40.63
2018-10-07T12:53:56.275Z,40.21
2018-10-07T12:56:25.230Z,40.34
2018-10-07T12:58:54.504Z,40.37
2018-10-07T13:01:24.510Z,39.92
2018-10-07T13:03:54.783Z,40.28
2018-10-07T13:06:24.923Z,40.39
2018-10-07T13:08:54.497Z,40.17
2018-10-07T13:11:23.365Z,40.42
2018-10-07T13:13:52.645Z,39.62
2018-10-07T13:16:22.165Z,38.35
2018-10-07T13:18:50.981Z,37.09
2018-10-07T13:21:19.933Z,37.55
2018-10-07T13:23:48.828Z,38.15
2018-10-07T13:26:17.767Z,38.95
2018-10-07T13:28:46.975Z,38.99
2018-10-07T13:31:16.309Z,39.14
2018-10-07T13:33:46.080Z,38.27
2018-10-07T13:36:15.623Z,37.44
2018-10-07T13:38:45.756Z,37.84
2018-10-07T13:41:15.111Z,38.51
2018-10-07T13:43:44.339Z,38.10
2018-10-07T13:46:13.627Z,37.99
2018-10-07T13:48:42.560Z,38.28
2018-10-07T13:51:11.533Z,38.60
2018-10-07T13:53:41.320Z,38.74
2018-10-07T13:56:10.330Z,39.55
2018-10-07T13:58:39.869Z,39.24
2018-10-07T14:01:08.828Z,39.63
2018-10-07T14:03:38.598Z,38.34
2018-10-07T14:06:08.455Z,38.33
2018-10-07T14:08:37.601Z,37.78
2018-10-07T14:11:08.265Z,36.83
2018-10-07T14:13:37.138Z,36.43
2018-10-07T14:16:06.079Z,36.26
2018-10-07T14:18:34.815Z,35.46
2018-10-07T14:21:03.727Z,32.75
2018-10-07T14:23:32.718Z,31.67
2018-10-07T14:26:01.654Z,31.05
2018-10-07T14:28:31.584Z,29.84
2018-10-07T14:31:00.601Z,29.75
2018-10-07T14:33:29.744Z,29.22
2018-10-07T14:35:58.955Z,28.47
2018-10-07T14:38:27.867Z,28.10
2018-10-07T14:40:56.692Z,27.87
2018-10-07T14:43:26.645Z,27.84
2018-10-07T14:45:55.853Z,27.70
2018-10-07T14:48:24.691Z,27.59
2018-10-07T14:50:54.155Z,27.49
2018-10-07T14:53:24.614Z,27.52
2018-10-07T14:55:54.705Z,27.09
2018-10-07T14:58:23.785Z,26.67
2018-10-07T15:00:53.069Z,26.56
2018-10-07T15:03:22.329Z,26.49
2018-10-07T15:05:51.144Z,26.23
2018-10-07T15:08:20.823Z,25.89
2018-10-07T15:10:50.936Z,25.76
2018-10-07T15:13:20.204Z,25.36
2018-10-07T15:15:49.598Z,25.24
2018-10-07T15:18:19.363Z,25.07
2018-10-07T15:20:49.036Z,24.79
2018-10-07T15:23:18.056Z,24.82
2018-10-07T15:25:47.329Z,24.68
2018-10-07T15:28:16.430Z,24.74
2018-10-07T15:30:45.479Z,24.73
2018-10-07T15:33:14.834Z,24.66
2018-10-07T15:35:43.907Z,24.52
2018-10-07T15:38:13.656Z,24.39
2018-10-07T15:40:42.603Z,24.51
2018-10-07T15:43:12.054Z,24.12
2018-10-07T15:45:41.138Z,24.01
2018-10-07T15:48:10.356Z,23.94
2018-10-07T15:50:39.449Z,23.83
2018-10-07T15:53:08.778Z,23.77
2018-10-07T15:55:38.519Z,23.69
2018-10-07T15:58:08.191Z,23.47
2018-10-07T16:00:37.857Z,23.43
2018-10-07T16:03:07.002Z,23.35
2018-10-07T16:05:35.776Z,23.26
2018-10-07T16:08:05.134Z,23.23
2018-10-07T16:10:34.250Z,23.07
2018-10-07T16:13:02.384Z,22.99
2018-10-07T16:15:30.656Z,22.88
2018-10-07T16:17:58.973Z,22.79
2018-10-07T16:20:27.736Z,22.72
2018-10-07T16:22:56.921Z,22.66
2018-10-07T16:25:25.800Z,22.48
2018-10-07T16:27:54.876Z,22.40
2018-10-07T16:30:24.156Z,22.25
2018-10-07T16:32:53.244Z,22.11
2018-10-07T16:35:22.591Z,21.84
2018-10-07T16:37:51.794Z,21.64
2018-10-07T16:40:20.624Z,21.55
2018-10-07T16:42:49.481Z,21.39
2018-10-07T16:45:18.772Z,21.18
2018-10-07T16:47:47.705Z,21.07
2018-10-07T16:50:16.874Z,20.95
2018-10-07T16:52:46.418Z,20.70
2018-10-07T16:55:15.376Z,20.51
2018-10-07T16:57:44.130Z,20.42
2018-10-07T17:00:13.945Z,20.30
2018-10-07T17:02:42.677Z,20.19
2018-10-07T17:05:12.221Z,20.02
2018-10-07T17:07:41.266Z,19.82
2018-10-07T17:10:10.552Z,19.77
2018-10-07T17:12:40.201Z,19.68
2018-10-07T17:15:09.155Z,19.52
2018-10-07T17:17:38.316Z,19.41
2018-10-07T17:20:08.384Z,19.28
2018-10-07T17:22:37.694Z,19.22
2018-10-07T17:25:07.009Z,19.07
2018-10-07T17:27:36.159Z,18.87
2018-10-07T17:30:05.306Z,18.77
2018-10-07T17:32:34.941Z,18.65
2018-10-07T17:35:03.926Z,18.60
2018-10-07T17:37:33.142Z,18.44
2018-10-07T17:40:02.277Z,18.33
2018-10-07T17:42:31.582Z,18.25
2018-10-07T17:45:00.626Z,18.13
2018-10-07T17:47:29.980Z,18.01
2018-10-07T17:49:59.235Z,18.05
2018-10-07T17:52:28.572Z,18.04
2018-10-07T17:54:57.909Z,17.97
2018-10-07T17:57:27.820Z,17.86
2018-10-07T17:59:57.138Z,17.68
2018-10-07T18:02:26.516Z,17.70
2018-10-07T18:04:55.520Z,17.60
2018-10-07T18:07:24.745Z,17.62
2018-10-07T18:09:54.032Z,17.54
2018-10-07T18:12:23.625Z,17.42
2018-10-07T18:14:52.369Z,17.35
2018-10-07T18:17:21.701Z,17.32
2018-10-07T18:19:50.806Z,17.37
2018-10-07T18:22:19.866Z,17.29
2018-10-07T18:24:49.187Z,17.28
2018-10-07T18:27:18.492Z,17.17
2018-10-07T18:29:48.001Z,17.16
2018-10-07T18:32:17.105Z,17.14
2018-10-07T18:34:46.392Z,16.95
2018-10-07T18:37:16.696Z,16.88
2018-10-07T18:39:46.496Z,16.88
2018-10-07T18:42:15.730Z,16.80
2018-10-07T18:44:45.916Z,16.79
2018-10-07T18:47:15.291Z,16.75
2018-10-07T18:49:44.493Z,16.71
2018-10-07T18:52:14.026Z,16.50
2018-10-07T18:54:43.165Z,16.49
2018-10-07T18:57:12.531Z,16.40
2018-10-07T18:59:41.580Z,16.36
2018-10-07T19:02:10.399Z,16.21
2018-10-07T19:04:39.779Z,16.10
2018-10-07T19:07:08.999Z,16.09
2018-10-07T19:09:38.170Z,15.99
2018-10-07T19:12:07.680Z,15.99
2018-10-07T19:14:37.721Z,15.92
2018-10-07T19:17:07.387Z,15.85
2018-10-07T19:19:36.556Z,15.80
2018-10-07T19:22:06.372Z,15.68
2018-10-07T19:24:36.345Z,15.46
2018-10-07T19:27:05.670Z,15.47
2018-10-07T19:29:35.124Z,15.35
2018-10-07T19:32:04.362Z,15.42
2018-10-07T19:34:33.702Z,15.25
2018-10-07T19:37:02.695Z,15.28
2018-10-07T19:39:31.708Z,15.10
2018-10-07T19:42:00.947Z,15.15
2018-10-07T19:44:30.301Z,14.91
2018-10-07T19:46:59.192Z,14.87
2018-10-07T19:49:28.895Z,14.85
2018-10-07T19:51:57.917Z,14.87
2018-10-07T19:54:27.250Z,14.71
2018-10-07T19:56:56.415Z,14.72
2018-10-07T19:59:25.421Z,14.50
2018-10-07T20:01:54.897Z,14.47
2018-10-07T20:04:24.009Z,14.54
2018-10-07T20:06:52.987Z,14.38
2018-10-07T20:09:21.822Z,14.44
2018-10-07T20:11:51.232Z,14.34
2018-10-07T20:14:20.546Z,14.32
2018-10-07T20:16:50.403Z,14.10
2018-10-07T20:19:19.628Z,14.10
2018-10-07T20:21:49.032Z,14.06
2018-10-07T20:24:18.188Z,13.93
2018-10-07T20:26:47.297Z,13.87
2018-10-07T20:29:16.612Z,13.88
2018-10-07T20:31:45.845Z,13.77
2018-10-07T20:34:15.417Z,13.67
2018-10-07T20:36:44.600Z,13.63
2018-10-07T20:39:14.263Z,13.60
2018-10-07T20:41:43.591Z,13.48
2018-10-07T20:44:12.722Z,13.21
2018-10-07T20:46:42.514Z,13.07
2018-10-07T20:49:11.378Z,13.13
2018-10-07T20:51:40.229Z,13.05
2018-10-07T20:54:09.388Z,13.08
2018-10-07T20:56:39.722Z,13.15
2018-10-07T20:59:08.803Z,13.13
2018-10-07T21:01:39.351Z,13.10
2018-10-07T21:04:08.191Z,12.95
2018-10-07T21:06:37.534Z,12.82
2018-10-07T21:09:09.640Z,12.71
2018-10-07T21:11:38.793Z,12.56
2018-10-07T21:14:08.210Z,12.58
2018-10-07T21:16:38.317Z,12.58
2018-10-07T21:19:07.053Z,12.59
2018-10-07T21:21:35.760Z,12.66
2018-10-07T21:24:07.076Z,12.71
2018-10-07T21:26:36.075Z,12.67
2018-10-07T21:29:05.307Z,12.59
2018-10-07T21:31:34.256Z,12.62
2018-10-07T21:34:03.016Z,12.44
2018-10-07T21:36:32.682Z,12.17
2018-10-07T21:39:02.360Z,12.17
2018-10-07T21:41:31.428Z,12.22
2018-10-07T21:44:00.296Z,12.26
2018-10-07T21:46:28.908Z,12.32
2018-10-07T21:48:57.713Z,12.10
2018-10-07T21:51:27.444Z,12.01
2018-10-07T21:53:56.631Z,12.07
2018-10-07T21:56:25.725Z,12.10
2018-10-07T21:58:56.357Z,12.10
2018-10-07T22:01:25.378Z,12.06
2018-10-07T22:03:54.441Z,11.97
2018-10-07T22:06:23.667Z,11.99
2018-10-07T22:08:52.935Z,11.98
2018-10-07T22:11:22.121Z,11.90
2018-10-07T22:13:51.336Z,11.90
2018-10-07T22:16:20.924Z,11.92
2018-10-07T22:18:49.751Z,11.91
2018-10-07T22:21:19.029Z,11.83
2018-10-07T22:23:47.846Z,11.76
2018-10-07T22:26:16.632Z,11.52
2018-10-07T22:28:45.850Z,11.57
2018-10-07T22:31:14.902Z,11.61
2018-10-07T22:33:43.995Z,11.64
2018-10-07T22:36:13.359Z,11.54
2018-10-07T22:38:42.551Z,11.48
2018-10-07T22:41:11.830Z,11.37
2018-10-07T22:43:42.208Z,11.36
2018-10-07T22:46:11.831Z,11.27
2018-10-07T22:48:40.535Z,11.24
2018-10-07T22:51:09.753Z,11.21
2018-10-07T22:53:38.562Z,11.14
2018-10-07T22:56:07.283Z,11.18
2018-10-07T22:58:36.468Z,11.25
2018-10-07T23:01:05.793Z,11.15
2018-10-07T23:03:34.868Z,10.99
2018-10-07T23:06:04.226Z,10.91
2018-10-07T23:08:33.276Z,10.90
2018-10-07T23:11:02.656Z,10.90
2018-10-07T23:13:31.402Z,10.94
2018-10-07T23:16:00.206Z,10.92
2018-10-07T23:18:29.752Z,10.96
2018-10-07T23:20:59.087Z,10.96
2018-10-07T23:23:27.757Z,10.85
2018-10-07T23:25:56.832Z,10.71
2018-10-07T23:28:25.612Z,10.62
2018-10-07T23:30:54.371Z,10.58
2018-10-07T23:33:23.132Z,10.61
2018-10-07T23:35:52.514Z,10.60
2018-10-07T23:38:21.273Z,10.68
2018-10-07T23:40:52.177Z,10.65
2018-10-07T23:43:21.020Z,10.38
2018-10-07T23:45:50.271Z,10.43
2018-10-07T23:48:19.871Z,10.44
2018-10-07T23:50:48.948Z,10.46
2018-10-07T23:53:17.733Z,10.44
2018-10-07T23:55:46.474Z,10.32
2018-10-07T23:58:15.702Z,10.25
